Time;durP1;ratioP1;P1;durP2;ratioP2;P2;SDS_P1;SDS_P2;PMS_P1;PMS_P2;Temp;Humidity;BMP_temperature;BMP_pressure;BME280_temperature;BME280_humidity;BME280_pressure;Samples;Min_cycle;Max_cycle;Signal;HPM_P1;HPM_P2
2022/03/23 00:02:06;;;;;;;56.30;49.47;;;9.80;99.90;;;;;;5093233;28;20772;-78
2022/03/23 00:04:31;;;;;;;59.10;51.37;;;9.70;99.90;;;;;;5111622;28;20937;-78
2022/03/23 00:06:59;;;;;;;56.22;49.00;;;9.70;99.90;;;;;;5093829;28;20435;-78
2022/03/23 00:09:26;;;;;;;54.97;47.93;;;9.80;99.90;;;;;;5093271;28;20397;-78
2022/03/23 00:11:52;;;;;;;60.90;50.33;;;9.70;99.90;;;;;;5111051;28;20396;-78
2022/03/23 00:14:18;;;;;;;60.28;51.88;;;9.70;99.90;;;;;;5102751;27;20403;-78
2022/03/23 00:16:44;;;;;;;57.58;49.85;;;9.60;99.90;;;;;;5132266;27;20391;-78
2022/03/23 00:19:09;;;;;;;58.45;52.03;;;9.60;99.90;;;;;;5113081;27;20473;-78
2022/03/23 00:21:36;;;;;;;58.93;51.57;;;9.60;99.90;;;;;;5131725;27;20406;-78
2022/03/23 00:24:03;;;;;;;58.63;49.78;;;9.60;99.90;;;;;;5131149;27;20896;-78
2022/03/23 00:26:29;;;;;;;57.47;49.92;;;9.50;99.90;;;;;;5113082;27;20399;-78
2022/03/23 00:28:54;;;;;;;59.13;46.30;;;9.50;99.90;;;;;;5113947;27;20055;-78
2022/03/23 00:31:22;;;;;;;58.65;44.88;;;9.50;99.90;;;;;;5113857;27;20046;-77
2022/03/23 00:33:49;;;;;;;57.28;42.92;;;9.50;99.90;;;;;;5114063;27;20103;-78
2022/03/23 00:36:15;;;;;;;59.72;43.67;;;9.40;99.90;;;;;;5114214;27;20401;-78
2022/03/23 00:38:41;;;;;;;58.03;43.30;;;9.40;99.90;;;;;;5132309;27;20520;-78
2022/03/23 00:41:08;;;;;;;;;;;9.40;99.90;;;;;;5114827;27;20051;-78
2022/03/23 00:43:34;;;;;;;;;;;9.40;99.90;;;;;;5097882;27;19923;-78
2022/03/23 00:45:59;;;;;;;;;;;9.40;99.90;;;;;;5114525;27;19941;-78
2022/03/23 00:48:25;;;;;;;;;;;9.30;99.90;;;;;;5133183;27;19919;-78
2022/03/23 00:50:50;;;;;;;;;;;9.30;99.90;;;;;;5133219;27;19919;-78
2022/03/23 00:53:17;;;;;;;;;;;9.30;99.90;;;;;;5132672;27;19956;-78
2022/03/23 00:55:43;;;;;;;;;;;9.20;99.90;;;;;;5133288;27;19923;-78
2022/03/23 00:58:09;;;;;;;;;;;9.10;99.90;;;;;;5132884;27;20010;-78
2022/03/23 01:00:35;;;;;;;;;;;9.10;99.90;;;;;;5114829;27;19923;-78
2022/03/23 01:03:01;;;;;;;;;;;9.10;99.90;;;;;;5114283;27;19927;-78
2022/03/23 01:05:26;;;;;;;64.47;44.05;;;9.00;99.90;;;;;;5113310;27;19919;-78
2022/03/23 01:07:52;;;;;;;60.42;45.45;;;9.00;99.90;;;;;;5132525;27;20087;-78
2022/03/23 01:10:18;;;;;;;57.63;43.97;;;9.00;99.90;;;;;;5132315;27;20039;-77
2022/03/23 01:12:46;;;;;;;61.10;44.58;;;9.00;99.90;;;;;;5113813;27;20043;-77
2022/03/23 01:15:15;;;;;;;65.07;45.92;;;8.90;99.90;;;;;;5114288;27;20075;-78
2022/03/23 01:17:41;;;;;;;63.78;46.03;;;8.80;99.90;;;;;;5092999;28;20459;-78
2022/03/23 01:20:08;;;;;;;62.35;43.20;;;8.70;99.90;;;;;;5093229;28;20131;-78
2022/03/23 01:22:35;;;;;;;66.53;46.17;;;8.70;99.90;;;;;;5111312;28;20538;-78
2022/03/23 01:25:03;;;;;;;62.10;45.17;;;8.60;99.90;;;;;;5111089;28;20043;-78
2022/03/23 01:27:29;;;;;;;56.90;41.90;;;8.60;99.90;;;;;;5111414;28;20047;-78
2022/03/23 01:29:54;;;;;;;61.17;43.38;;;8.50;99.90;;;;;;5111497;28;20047;-78
2022/03/23 01:32:20;;;;;;;62.50;45.47;;;8.50;99.90;;;;;;5110833;28;20040;-78
2022/03/23 01:34:45;;;;;;;63.08;46.03;;;8.50;99.90;;;;;;5111208;28;20071;-78
2022/03/23 01:37:11;;;;;;;64.97;45.47;;;8.40;99.90;;;;;;5092884;28;20047;-78
2022/03/23 01:39:36;;;;;;;60.97;44.53;;;8.40;99.90;;;;;;5092632;28;20198;-78
2022/03/23 01:42:02;;;;;;;62.80;45.67;;;8.40;99.90;;;;;;5110885;28;20480;-78
2022/03/23 01:44:28;;;;;;;62.88;46.03;;;8.30;99.90;;;;;;5092113;28;20044;-78
2022/03/23 01:47:11;;;;;;;65.20;45.85;;;8.30;99.90;;;;;;5110881;28;20064;-78
2022/03/23 01:49:41;;;;;;;65.63;45.67;;;8.30;99.90;;;;;;5111184;28;20054;-78
2022/03/23 01:52:09;;;;;;;63.08;44.88;;;8.20;99.90;;;;;;5092583;28;20505;-78
2022/03/23 01:54:37;;;;;;;58.58;43.85;;;8.20;99.90;;;;;;5110536;28;20417;-78
2022/03/23 01:57:04;;;;;;;58.45;42.38;;;8.20;99.90;;;;;;5091915;28;20573;-78
2022/03/23 01:59:30;;;;;;;60.05;44.88;;;8.20;99.90;;;;;;5092783;28;20536;-78
2022/03/23 02:01:56;;;;;;;63.00;44.33;;;8.10;99.90;;;;;;5092320;28;20052;-78
2022/03/23 02:04:22;;;;;;;61.58;46.13;;;8.10;99.90;;;;;;5092385;28;20469;-78
2022/03/23 02:06:48;;;;;;;60.85;43.97;;;8.10;99.90;;;;;;5075843;28;20043;-78
2022/03/23 02:09:17;;;;;;;62.53;44.95;;;8.10;99.90;;;;;;5092192;28;20047;-78
2022/03/23 02:11:44;;;;;;;63.17;46.38;;;8.10;99.90;;;;;;5092007;28;20062;-78
2022/03/23 02:14:10;;;;;;;60.80;44.53;;;8.00;99.90;;;;;;5100880;27;20708;-78
2022/03/23 02:16:44;;;;;;;62.05;45.13;;;8.00;99.90;;;;;;5112827;27;20046;-78
2022/03/23 02:19:10;;;;;;;68.50;55.17;;;8.00;99.90;;;;;;5111180;27;20418;-78
2022/03/23 02:21:37;;;;;;;69.28;55.80;;;8.00;99.90;;;;;;5111279;27;20405;-78
2022/03/23 02:24:04;;;;;;;70.57;58.77;;;7.90;99.90;;;;;;5110500;27;20403;-77
2022/03/23 02:26:31;;;;;;;69.50;51.38;;;7.80;99.90;;;;;;5130509;27;20051;-77
2022/03/23 02:28:59;;;;;;;66.40;48.15;;;7.80;99.90;;;;;;5112459;27;20046;-77
2022/03/23 02:31:25;;;;;;;64.25;47.13;;;7.80;99.90;;;;;;5112622;27;20054;-78
2022/03/23 02:33:51;;;;;;;66.50;48.55;;;7.70;99.90;;;;;;5111965;27;20734;-78
2022/03/23 02:36:17;;;;;;;67.13;46.60;;;7.80;99.90;;;;;;5111943;27;20050;-78
2022/03/23 02:38:43;;;;;;;62.08;45.38;;;7.80;99.90;;;;;;5111710;27;20065;-78
2022/03/23 02:41:09;;;;;;;64.65;45.40;;;7.70;99.90;;;;;;5111943;27;20059;-78
2022/03/23 02:43:35;;;;;;;62.28;43.03;;;7.70;99.90;;;;;;5112174;27;20051;-77
2022/03/23 02:46:02;;;;;;;63.15;45.40;;;7.70;99.90;;;;;;5112099;27;20031;-78
2022/03/23 02:48:28;;;;;;;64.93;45.60;;;7.70;99.90;;;;;;5112101;27;20060;-78
2022/03/23 02:50:53;;;;;;;59.78;43.78;;;7.70;99.90;;;;;;5111576;27;20047;-78
2022/03/23 03:02:01;;;;;;;62.00;42.88;;;7.60;99.90;;;;;;5090968;28;20083;-78
2022/03/23 03:04:27;;;;;;;61.28;44.22;;;7.60;99.90;;;;;;5122803;27;20047;-78
2022/03/23 03:06:52;;;;;;;64.13;45.05;;;7.50;99.90;;;;;;5130040;27;20050;-78
2022/03/23 03:09:21;;;;;;;63.70;43.83;;;7.50;99.90;;;;;;5130043;27;20035;-78
2022/03/23 03:11:47;;;;;;;65.47;44.92;;;7.50;99.90;;;;;;5126738;27;21106;-78
2022/03/23 03:14:13;;;;;;;64.30;45.40;;;7.50;99.90;;;;;;5109129;28;20414;-78
2022/03/23 03:16:39;;;;;;;;;;;7.50;99.90;;;;;;5075363;28;20055;-78
2022/03/23 03:19:05;;;;;;;;;;;7.40;99.90;;;;;;5091636;28;19920;-78
2022/03/23 03:21:32;;;;;;;;;;;7.40;99.90;;;;;;5109943;28;19920;-79
2022/03/23 03:23:57;;;;;;;;;;;7.40;99.90;;;;;;5109764;28;20397;-78
2022/03/23 03:26:23;;;;;;;;;;;7.40;99.90;;;;;;5091758;28;19923;-78
2022/03/23 03:28:50;;;;;;;;;;;7.40;99.90;;;;;;5094168;28;19959;-78
2022/03/23 03:31:16;;;;;;;60.17;42.42;;;7.30;99.90;;;;;;5129943;28;19919;-78
2022/03/23 03:33:43;;;;;;;63.58;43.95;;;7.30;99.90;;;;;;5130027;28;20035;-78
2022/03/23 03:36:10;;;;;;;62.50;43.22;;;7.20;99.90;;;;;;5129889;28;20138;-79
2022/03/23 03:38:37;;;;;;;61.67;42.22;;;7.20;99.90;;;;;;5129361;28;20035;-78
2022/03/23 03:41:03;;;;;;;59.13;43.33;;;7.20;99.90;;;;;;5129599;28;20099;-78
2022/03/23 03:43:30;;;;;;;64.60;44.20;;;7.20;99.90;;;;;;5111530;28;20421;-79
2022/03/23 03:45:56;;;;;;;59.00;44.13;;;7.20;99.90;;;;;;5111077;28;20570;-78
2022/03/23 03:48:21;;;;;;;59.67;43.17;;;7.10;99.90;;;;;;5129425;28;20130;-78
2022/03/23 03:50:48;;;;;;;58.58;42.65;;;7.10;99.90;;;;;;5129880;28;20140;-78
2022/03/23 03:53:13;;;;;;;61.20;42.53;;;7.10;99.90;;;;;;5111081;28;20502;-79
2022/03/23 03:55:40;;;;;;;61.70;42.80;;;7.10;99.90;;;;;;5129611;28;20047;-78
2022/03/23 03:58:08;;;;;;;57.33;41.65;;;7.00;99.90;;;;;;5129623;28;20043;-78
2022/03/23 04:00:36;;;;;;;60.17;40.90;;;7.00;99.90;;;;;;5111316;28;20051;-78
2022/03/23 04:03:05;;;;;;;58.05;42.65;;;6.90;99.90;;;;;;5110539;28;20493;-78
2022/03/23 04:05:31;;;;;;;59.53;43.30;;;7.00;99.90;;;;;;5111066;28;20046;-78
2022/03/23 04:07:57;;;;;;;57.15;40.92;;;7.00;99.90;;;;;;5112590;27;20080;-78
2022/03/23 04:10:23;;;;;;;59.90;42.67;;;6.90;99.90;;;;;;5133728;27;20039;-78
2022/03/23 04:12:49;;;;;;;54.75;41.70;;;6.90;99.90;;;;;;5114276;27;20081;-77
2022/03/23 04:15:15;;;;;;;57.00;40.35;;;6.80;99.90;;;;;;5133148;27;20075;-78
2022/03/23 04:17:41;;;;;;;55.88;40.55;;;6.80;99.90;;;;;;5133482;27;20638;-78
2022/03/23 04:20:09;;;;;;;55.38;39.15;;;6.80;99.90;;;;;;5133006;27;20043;-79
2022/03/23 04:22:34;;;;;;;59.10;41.53;;;6.80;99.90;;;;;;5114444;27;20096;-79
2022/03/23 04:25:00;;;;;;;58.90;40.08;;;6.70;99.90;;;;;;5114864;27;20551;-78
2022/03/23 04:27:26;;;;;;;61.03;40.92;;;6.70;99.90;;;;;;5115090;27;20047;-78
2022/03/23 04:29:52;;;;;;;53.42;38.53;;;6.70;99.90;;;;;;5114725;27;20537;-78
2022/03/23 04:32:17;;;;;;;57.70;39.13;;;6.70;99.90;;;;;;5114196;27;20039;-78
2022/03/23 04:34:43;;;;;;;56.13;39.47;;;6.60;99.90;;;;;;5114362;27;20039;-78
2022/03/23 04:37:09;;;;;;;54.78;39.33;;;6.60;99.90;;;;;;5114596;27;20043;-78
2022/03/23 04:39:34;;;;;;;54.65;39.80;;;6.60;99.90;;;;;;5114209;27;20051;-78
2022/03/23 04:42:00;;;;;;;58.17;41.17;;;6.60;99.90;;;;;;5132668;27;20489;-78
2022/03/23 04:44:26;;;;;;;57.17;41.15;;;6.60;99.90;;;;;;5133014;27;20039;-78
2022/03/23 04:46:52;;;;;;;52.38;36.75;;;6.50;99.90;;;;;;5132200;27;20095;-78
2022/03/23 04:49:18;;;;;;;59.80;42.45;;;6.50;99.90;;;;;;5114174;27;20137;-78
2022/03/23 04:51:44;;;;;;;59.58;40.88;;;6.50;99.90;;;;;;5114695;27;20134;-79
2022/03/23 04:54:09;;;;;;;52.58;38.15;;;6.40;99.90;;;;;;5132446;27;20134;-78
2022/03/23 04:56:35;;;;;;;55.97;40.78;;;6.50;99.90;;;;;;5114029;27;20051;-78
2022/03/23 04:59:01;;;;;;;56.45;39.95;;;6.40;99.90;;;;;;5114029;27;20046;-78
2022/03/23 05:01:26;;;;;;;56.60;38.53;;;6.40;99.90;;;;;;5132373;27;20043;-78
2022/03/23 05:03:52;;;;;;;53.92;39.05;;;6.40;99.90;;;;;;5121606;27;20047;-78
2022/03/23 05:06:19;;;;;;;58.45;38.65;;;6.40;99.90;;;;;;5093385;28;20749;-78
2022/03/23 05:08:45;;;;;;;55.35;39.15;;;6.40;99.90;;;;;;5111752;28;20089;-78
2022/03/23 05:11:10;;;;;;;57.10;37.92;;;6.40;99.90;;;;;;5093419;28;20051;-78
2022/03/23 05:13:37;;;;;;;57.20;37.97;;;6.40;99.90;;;;;;5093366;28;20039;-79
2022/03/23 05:16:03;;;;;;;55.33;39.17;;;6.40;99.90;;;;;;5111336;28;20047;-79
2022/03/23 05:18:29;;;;;;;57.38;38.65;;;6.40;99.90;;;;;;5093150;28;20122;-78
2022/03/23 05:20:55;;;;;;;60.33;40.30;;;6.40;99.90;;;;;;5110832;28;20588;-78
2022/03/23 05:23:20;;;;;;;56.75;41.08;;;6.30;99.90;;;;;;5110989;28;20087;-78
2022/03/23 05:25:46;;;;;;;55.80;40.22;;;6.30;99.90;;;;;;5092937;28;20048;-78
2022/03/23 05:28:13;;;;;;;58.38;38.85;;;6.30;99.90;;;;;;5092917;28;20567;-78
2022/03/23 05:30:39;;;;;;;60.35;39.22;;;6.30;99.90;;;;;;5111110;28;20745;-78
2022/03/23 05:33:04;;;;;;;55.67;38.10;;;6.30;99.90;;;;;;5093121;28;20406;-78
2022/03/23 05:35:30;;;;;;;51.03;36.90;;;6.30;99.90;;;;;;5092326;28;20094;-78
2022/03/23 05:37:56;;;;;;;56.67;38.15;;;6.20;99.90;;;;;;5075900;28;20044;-78
2022/03/23 05:40:21;;;;;;;54.90;38.65;;;6.20;99.90;;;;;;5092547;28;20077;-79
2022/03/23 05:42:48;;;;;;;53.42;36.97;;;6.20;99.90;;;;;;5110833;28;20051;-78
2022/03/23 05:45:14;;;;;;;57.25;38.70;;;6.20;99.90;;;;;;5111300;28;20043;-79
2022/03/23 05:47:40;;;;;;;54.35;37.55;;;6.20;99.90;;;;;;5092358;28;20566;-78
2022/03/23 05:50:07;;;;;;;54.25;37.20;;;6.30;99.90;;;;;;5092290;28;20051;-79
2022/03/23 05:52:32;;;;;;;53.53;37.90;;;6.30;99.90;;;;;;5092501;28;20052;-78
2022/03/23 05:54:58;;;;;;;55.35;38.78;;;6.30;99.90;;;;;;5091909;28;20039;-78
2022/03/23 05:57:24;;;;;;;63.60;42.25;;;6.30;99.90;;;;;;5092292;28;20043;-79
2022/03/23 05:59:49;;;;;;;56.53;38.00;;;6.30;99.90;;;;;;5092499;28;20048;-79
2022/03/23 06:02:15;;;;;;;56.15;38.42;;;6.30;99.90;;;;;;5092533;28;20077;-80
2022/03/23 06:04:41;;;;;;;59.35;39.58;;;6.30;99.90;;;;;;5128203;27;20096;-78
2022/03/23 06:07:07;;;;;;;54.95;37.70;;;6.30;99.90;;;;;;5112314;27;20039;-78
2022/03/23 06:09:32;;;;;;;56.10;38.40;;;6.30;99.90;;;;;;5131101;27;20043;-78
2022/03/23 06:11:58;;;;;;;57.83;38.88;;;6.30;99.90;;;;;;5112526;27;20062;-78
2022/03/23 06:14:24;;;;;;;55.13;36.40;;;6.40;99.90;;;;;;5112355;27;20104;-78
2022/03/23 06:16:50;;;;;;;56.45;38.63;;;6.40;99.90;;;;;;5095829;27;20116;-78
2022/03/23 06:19:17;;;;;;;59.80;48.15;;;6.40;99.90;;;;;;5110651;27;20451;-78
2022/03/23 06:21:43;;;;;;;;;;;6.40;99.90;;;;;;5113106;27;20059;-78
2022/03/23 06:24:08;;;;;;;51.80;37.08;;;6.50;99.90;;;;;;5112251;27;19989;-78
2022/03/23 06:26:34;;;;;;;57.27;47.90;;;6.60;99.90;;;;;;5110975;27;20399;-78
2022/03/23 06:28:59;;;;;;;52.00;40.08;;;6.60;99.90;;;;;;5112021;27;20045;-78
2022/03/23 06:31:25;;;;;;;57.28;41.13;;;6.70;99.90;;;;;;5111847;27;20035;-78
2022/03/23 06:33:51;;;;;;;53.97;38.92;;;6.70;99.90;;;;;;5112216;27;20078;-78
2022/03/23 06:36:16;;;;;;;54.67;39.45;;;6.80;99.90;;;;;;5112599;27;20051;-78
2022/03/23 06:38:42;;;;;;;57.75;40.85;;;6.80;99.90;;;;;;5094829;27;20035;-78
2022/03/23 06:41:08;;;;;;;59.90;40.42;;;6.90;99.90;;;;;;5130446;27;20050;-79
2022/03/23 06:43:34;;;;;;;55.92;40.55;;;7.00;99.90;;;;;;5112106;27;20051;-79
2022/03/23 06:46:00;;;;;;;57.65;40.35;;;7.00;99.90;;;;;;5126198;27;20382;-79
2022/03/23 06:48:26;;;;;;;59.40;41.50;;;7.10;99.90;;;;;;5111138;27;20043;-78
2022/03/23 06:50:51;;;;;;;61.45;41.17;;;7.20;99.90;;;;;;5097728;28;20413;-77
2022/03/23 06:53:17;;;;;;;70.43;42.97;;;7.20;99.90;;;;;;5093938;28;20126;-77
2022/03/23 06:55:42;;;;;;;61.65;40.80;;;7.30;99.90;;;;;;5074230;28;20071;-77
2022/03/23 06:58:08;;;;;;;60.78;40.20;;;7.40;99.90;;;;;;5074352;28;20051;-77
2022/03/23 07:00:34;;;;;;;63.88;39.75;;;7.40;99.90;;;;;;5109811;28;20075;-77
2022/03/23 07:03:00;;;;;;;61.92;39.65;;;7.50;99.90;;;;;;5112030;27;20143;-77
2022/03/23 07:05:25;;;;;;;57.33;40.75;;;7.60;99.90;;;;;;5130090;27;20039;-77
2022/03/23 07:10:36;;;;;;;56.17;40.00;;;7.80;99.90;;;;;;5129984;27;20051;-77
2022/03/23 07:13:02;;;;;;;57.30;40.35;;;7.80;99.90;;;;;;5111645;27;20081;-77
2022/03/23 07:15:28;;;;;;;56.15;39.42;;;7.90;99.90;;;;;;5130311;27;20035;-77
2022/03/23 07:17:54;;;;;;;54.30;38.17;;;8.00;99.90;;;;;;5129550;27;20050;-77
2022/03/23 07:20:20;;;;;;;56.50;38.88;;;8.10;99.90;;;;;;5129961;28;20126;-78
2022/03/23 07:22:46;;;;;;;54.47;36.35;;;8.20;99.90;;;;;;5130219;28;20409;-78
2022/03/23 07:25:12;;;;;;;53.53;42.38;;;8.20;99.90;;;;;;5127983;28;20399;-79
2022/03/23 07:27:38;;;;;;;51.22;40.95;;;8.30;99.90;;;;;;5127971;28;20874;-78
2022/03/23 07:30:05;;;;;;;50.85;41.55;;;8.30;99.90;;;;;;5128675;28;20391;-79
2022/03/23 07:32:31;;;;;;;43.22;38.50;;;8.40;99.90;;;;;;5128949;28;20764;-79
2022/03/23 07:34:57;;;;;;;46.90;38.40;;;8.50;99.90;;;;;;5128496;28;20402;-78
2022/03/23 07:37:23;;;;;;;47.07;37.80;;;8.60;99.90;;;;;;5109820;28;20395;-78
2022/03/23 07:39:48;;;;;;;46.55;39.13;;;8.60;99.90;;;;;;5109584;28;20402;-78
2022/03/23 07:42:14;;;;;;;43.03;37.43;;;8.70;99.90;;;;;;5110559;27;20422;-78
2022/03/23 07:44:40;;;;;;;45.35;38.03;;;8.80;99.90;;;;;;5132604;27;20509;-79
2022/03/23 07:47:12;;;;;;;46.88;37.90;;;8.80;99.90;;;;;;5132237;27;20395;-79
2022/03/23 07:49:39;;;;;;;45.17;36.30;;;8.90;99.90;;;;;;5132550;27;20398;-78
2022/03/23 07:52:05;;;;;;;43.97;36.22;;;9.00;99.90;;;;;;5131537;27;20406;-79
2022/03/23 07:54:31;;;;;;;43.47;36.90;;;9.10;99.90;;;;;;5132211;27;20532;-78
2022/03/23 07:56:57;;;;;;;46.50;33.38;;;9.10;99.90;;;;;;5115303;27;20071;-78
2022/03/23 07:59:22;;;;;;;48.25;31.73;;;9.20;99.90;;;;;;5115425;27;20047;-78
2022/03/23 08:01:48;;;;;;;50.72;31.27;;;9.30;99.90;;;;;;5133493;27;20028;-79
2022/03/23 08:04:14;;;;;;;43.22;31.50;;;9.40;99.90;;;;;;5114341;27;20043;-78
2022/03/23 08:06:39;;;;;;;48.85;32.30;;;9.50;99.90;;;;;;5115258;27;20043;-78
2022/03/23 08:09:05;;;;;;;39.17;29.45;;;9.60;99.90;;;;;;5132914;27;20519;-78
2022/03/23 08:11:31;;;;;;;43.22;29.80;;;9.60;99.90;;;;;;5114790;27;20050;-78
2022/03/23 08:13:57;;;;;;;41.95;30.63;;;9.80;99.90;;;;;;5114366;27;20047;-79
2022/03/23 08:16:23;;;;;;;47.03;30.48;;;9.80;99.90;;;;;;5132908;27;20125;-78
2022/03/23 08:18:49;;;;;;;40.88;30.02;;;9.90;99.90;;;;;;5114085;27;20054;-78
2022/03/23 08:21:17;;;;;;;42.00;27.02;;;10.00;99.90;;;;;;5132834;27;20039;-79
2022/03/23 08:23:43;;;;;;;39.38;25.20;;;10.10;99.90;;;;;;5132841;27;20288;-79
2022/03/23 08:26:10;;;;;;;37.33;25.90;;;10.30;99.90;;;;;;5114535;27;20126;-79
2022/03/23 08:28:38;;;;;;;32.50;22.75;;;10.40;99.90;;;;;;5132795;27;20118;-79
2022/03/23 08:31:03;;;;;;;40.03;23.48;;;10.50;99.90;;;;;;5114262;27;20066;-78
2022/03/23 08:33:32;;;;;;;34.50;23.60;;;10.60;99.90;;;;;;5114482;27;20043;-79
2022/03/23 08:35:59;;;;;;;33.30;22.33;;;10.80;99.90;;;;;;5132656;27;20111;-79
2022/03/23 08:38:24;;;;;;;28.48;21.15;;;10.80;99.90;;;;;;5114774;27;20051;-79
2022/03/23 08:40:50;;;;;;;30.30;21.10;;;10.90;99.90;;;;;;5113718;27;20107;-79
2022/03/23 08:43:16;;;;;;;34.15;21.92;;;11.10;99.90;;;;;;5132200;27;20051;-79
2022/03/23 08:45:42;;;;;;;27.83;21.00;;;11.20;99.90;;;;;;5114593;27;20099;-79
2022/03/23 08:48:09;;;;;;;27.40;21.63;;;11.20;99.90;;;;;;5114038;27;20050;-78
2022/03/23 08:50:36;;;;;;;34.78;21.63;;;11.40;99.90;;;;;;5132399;27;20148;-79
2022/03/23 08:53:03;;;;;;;29.55;20.88;;;11.50;99.90;;;;;;5132724;27;20123;-79
2022/03/23 08:55:29;;;;;;;29.50;23.02;;;11.50;99.70;;;;;;5110893;27;20415;-79
2022/03/23 08:57:55;;;;;;;27.98;24.08;;;11.70;98.80;;;;;;5130783;27;20398;-79
2022/03/23 09:00:21;;;;;;;28.80;24.40;;;11.80;99.00;;;;;;5131010;27;20411;-79
2022/03/23 09:02:46;;;;;;;28.37;24.60;;;11.90;99.10;;;;;;5112412;27;20433;-78
2022/03/23 09:05:14;;;;;;;31.58;26.10;;;12.00;99.00;;;;;;5112750;27;20489;-79
2022/03/23 09:07:40;;;;;;;32.95;27.15;;;12.10;99.50;;;;;;5130356;27;20520;-79
2022/03/23 09:10:07;;;;;;;30.83;25.77;;;12.20;99.00;;;;;;5129875;27;20512;-79
2022/03/23 09:12:33;;;;;;;29.58;23.58;;;12.30;98.20;;;;;;5130628;27;20395;-79
2022/03/23 09:14:59;;;;;;;28.83;23.27;;;12.40;97.40;;;;;;5130648;27;20390;-79
2022/03/23 09:17:24;;;;;;;27.33;22.45;;;12.60;96.70;;;;;;5130551;27;20395;-79
2022/03/23 09:19:50;;;;;;;23.43;21.00;;;12.70;95.20;;;;;;5095344;27;20816;-79
2022/03/23 09:22:16;;;;;;;25.98;21.60;;;12.90;93.70;;;;;;5130170;27;20418;-79
2022/03/23 09:24:41;;;;;;;22.37;19.80;;;13.30;94.60;;;;;;5130411;27;20398;-79
2022/03/23 09:27:07;;;;;;;24.67;20.75;;;14.20;91.30;;;;;;5130506;27;20423;-76
2022/03/23 09:29:32;;;;;;;25.63;21.37;;;15.20;90.50;;;;;;5111810;27;20815;-77
2022/03/23 09:31:58;;;;;;;28.77;21.07;;;16.10;89.10;;;;;;5130195;27;20438;-77
2022/03/23 09:34:24;;;;;;;23.98;20.85;;;16.90;81.30;;;;;;5111989;27;20970;-77
2022/03/23 09:39:34;;;;;;;;;;;18.10;77.90;;;;;;5131422;27;20300;-77
2022/03/23 09:42:00;;;;;;;;;;;18.70;75.10;;;;;;5131942;27;19919;-77
2022/03/23 09:44:29;;;;;;;;;;;19.20;73.50;;;;;;5132079;27;20308;-77
2022/03/23 09:46:56;;;;;;;;;;;19.60;71.40;;;;;;5113240;27;20438;-77
2022/03/23 09:49:22;;;;;;;;;;;19.90;65.40;;;;;;5096477;27;19923;-77
2022/03/23 09:51:51;;;;;;;;;;;20.10;63.10;;;;;;5131545;27;19919;-77
2022/03/23 09:54:16;;;;;;;;;;;20.30;67.40;;;;;;5131726;27;20306;-77
2022/03/23 09:56:42;;;;;;;;;;;20.50;64.30;;;;;;5131467;27;20014;-77
2022/03/23 09:59:07;;;;;;;;;;;20.80;64.40;;;;;;5131597;27;19927;-77
2022/03/23 10:01:51;;;;;;;;;;;20.90;65.90;;;;;;5113423;27;19945;-77
2022/03/23 10:04:20;;;;;;;;;;;21.00;61.10;;;;;;5117498;27;19930;-77
2022/03/23 10:06:57;;;;;;;;;;;21.20;64.00;;;;;;5110451;28;19974;-78
2022/03/23 10:09:26;;;;;;;;;;;21.40;62.30;;;;;;5111109;28;20374;-79
2022/03/23 10:11:51;;;;;;;;;;;21.60;60.10;;;;;;5110794;28;19919;-79
2022/03/23 10:14:23;;;;;;;;;;;21.80;58.80;;;;;;5092237;28;20624;-79
2022/03/23 10:17:08;;;;;;;;;;;21.90;56.80;;;;;;5110907;28;20016;-79
2022/03/23 10:19:40;;;;;;;;;;;21.90;55.30;;;;;;5092473;28;20014;-79
2022/03/23 10:22:07;;;;;;;;;;;22.10;53.80;;;;;;5092620;28;19919;-79
2022/03/23 10:24:33;;;;;;;;;;;22.20;53.00;;;;;;5092561;28;19965;-79
2022/03/23 10:27:04;;;;;;;;;;;22.40;51.20;;;;;;5092193;28;19927;-79
2022/03/23 10:29:31;;;;;;;;;;;22.40;53.00;;;;;;5092786;28;19971;-79
2022/03/23 10:32:04;;;;;;;;;;;22.60;52.70;;;;;;5092158;28;19926;-79
2022/03/23 10:34:42;;;;;;;;;;;22.80;51.60;;;;;;5110128;28;20293;-79
2022/03/23 10:37:08;;;;;;;;;;;23.00;49.40;;;;;;5092182;28;20332;-79
2022/03/23 10:39:34;;;;;;;;;;;23.20;49.50;;;;;;5074464;28;19981;-79
2022/03/23 10:42:12;;;;;;;;;;;23.20;50.60;;;;;;5090718;28;19920;-79
2022/03/23 10:44:38;;;;;;;;;;;23.20;48.60;;;;;;5090910;28;19924;-79
2022/03/23 10:47:06;;;;;;;;;;;23.30;49.50;;;;;;5108635;28;20216;-79
2022/03/23 10:49:31;;;;;;;;;;;23.60;49.50;;;;;;5090858;28;20010;-79
2022/03/23 10:52:06;;;;;;;;;;;23.60;47.60;;;;;;5109137;28;19931;-79
2022/03/23 10:54:32;;;;;;;;;;;23.70;48.30;;;;;;5109250;28;19930;-79
2022/03/23 10:56:58;;;;;;;;;;;23.80;48.00;;;;;;5109002;28;19924;-79
2022/03/23 10:59:26;;;;;;;;;;;24.00;48.10;;;;;;5108851;28;20271;-79
2022/03/23 11:02:04;;;;;;;;;;;24.00;46.90;;;;;;5090921;28;19923;-78
2022/03/23 11:04:31;;;;;;;;;;;24.10;48.50;;;;;;5125151;27;19931;-78
2022/03/23 11:06:58;;;;;;;;;;;24.20;47.60;;;;;;5110709;28;19930;-78
2022/03/23 11:18:04;;;;;;;;;;;24.40;46.70;;;;;;5110628;28;19924;-78
2022/03/23 11:20:50;;;;;;;;;;;24.50;45.10;;;;;;5129493;28;19932;-78
2022/03/23 11:23:19;;;;;;;;;;;24.50;43.90;;;;;;5129326;28;19934;-78
2022/03/23 11:25:48;;;;;;;;;;;24.50;46.30;;;;;;5129232;28;19927;-78
2022/03/23 11:28:15;;;;;;;;;;;24.60;44.20;;;;;;5111289;28;19924;-78
2022/03/23 11:30:41;;;;;;;;;;;24.60;44.80;;;;;;5111127;28;19949;-78
2022/03/23 11:33:07;;;;;;;;;;;24.70;45.30;;;;;;5129225;28;19934;-78
2022/03/23 11:35:34;;;;;;;;;;;24.60;44.50;;;;;;5129506;28;19984;-78
2022/03/23 11:38:00;;;;;;;;;;;24.70;45.00;;;;;;5128635;28;20290;-78
2022/03/23 11:40:26;;;;;;;;;;;24.70;44.90;;;;;;5129216;28;19963;-78
2022/03/23 11:42:52;;;;;;;;;;;24.80;43.40;;;;;;5129089;28;20381;-78
2022/03/23 11:45:18;;;;;;;;;;;24.80;42.90;;;;;;5110662;28;20022;-78
2022/03/23 11:47:58;;;;;;;;;;;24.90;43.40;;;;;;5110727;28;20006;-78
2022/03/23 11:50:32;;;;;;;;;;;24.90;43.30;;;;;;5129289;28;19924;-78
2022/03/23 11:53:06;;;;;;;;;;;24.90;41.40;;;;;;5129295;28;19927;-78
2022/03/23 11:55:42;;;;;;;;;;;25.10;42.90;;;;;;5129434;28;19931;-78
2022/03/23 11:58:24;;;;;;;;;;;25.20;41.60;;;;;;5130005;28;19958;-78
2022/03/23 12:00:53;;;;;;;;;;;25.20;41.00;;;;;;5129926;28;19930;-79
2022/03/23 12:03:37;;;;;;;;;;;25.30;40.70;;;;;;5124157;28;20286;-78
2022/03/23 12:06:10;;;;;;;;;;;25.40;41.30;;;;;;5109482;28;19924;-77
2022/03/23 12:08:57;;;;;;;;;;;25.40;40.00;;;;;;5091354;28;19931;-77
2022/03/23 12:11:41;;;;;;;;;;;25.60;40.60;;;;;;5091284;28;19931;-77
2022/03/23 12:14:26;;;;;;;;;;;25.70;40.30;;;;;;5109704;28;19976;-77
2022/03/23 12:16:52;;;;;;;;;;;25.60;38.70;;;;;;5090323;28;19924;-77
2022/03/23 12:19:28;;;;;;;;;;;25.50;37.00;;;;;;5109230;28;19935;-77
2022/03/23 12:21:58;;;;;;;;;;;25.50;38.70;;;;;;5090461;28;19978;-77
2022/03/23 12:24:43;;;;;;;;;;;25.60;38.80;;;;;;5108839;28;19967;-77
2022/03/23 12:27:16;;;;;;;;;;;25.80;38.20;;;;;;5108262;28;19928;-78
2022/03/23 12:29:44;;;;;;;;;;;25.90;38.10;;;;;;5110760;28;20536;-77
2022/03/23 12:32:10;;;;;;;;;;;25.90;38.30;;;;;;5094116;28;20267;-77
2022/03/23 12:34:37;;;;;;;;;;;25.90;37.60;;;;;;5111727;28;19935;-77
2022/03/23 12:37:10;;;;;;;;;;;26.20;37.00;;;;;;5093801;28;20345;-77
2022/03/23 12:39:37;;;;;;;;;;;26.40;37.90;;;;;;5084437;28;19929;-77
2022/03/23 12:42:15;;;;;;;;;;;26.60;37.40;;;;;;5071038;28;19975;-77
2022/03/23 12:44:56;;;;;;;;;;;26.60;36.50;;;;;;5071406;28;19929;-77
2022/03/23 12:47:25;;;;;;;;;;;26.70;35.60;;;;;;5071408;28;19962;-77
2022/03/23 12:58:11;;;;;;;;;;;26.70;33.70;;;;;;5071710;28;19924;-77
2022/03/23 13:00:47;;;;;;;;;;;26.70;34.90;;;;;;5071872;28;20294;-77
2022/03/23 13:03:33;;;;;;;;;;;26.80;35.10;;;;;;5075099;28;19928;-77
2022/03/23 13:06:01;;;;;;;;;;;27.10;35.40;;;;;;5090445;28;20012;-77
2022/03/23 13:08:30;;;;;;;;;;;27.40;35.00;;;;;;5091852;28;19932;-77
2022/03/23 13:10:58;;;;;;;;;;;27.60;33.60;;;;;;5091729;28;19977;-77
2022/03/23 13:13:24;;;;;;;;;;;27.60;34.10;;;;;;5092247;28;19970;-77
2022/03/23 13:15:50;;;;;;;;;;;27.70;33.70;;;;;;5090123;28;19931;-77
2022/03/23 13:18:16;;;;;;;;;;;27.90;34.10;;;;;;5090474;28;19924;-77
2022/03/23 13:20:49;;;;;;;;;;;27.80;32.10;;;;;;5091788;28;19932;-76
2022/03/23 13:23:17;;;;;;;;;;;27.70;33.90;;;;;;5090472;28;19924;-77
2022/03/23 13:25:43;;;;;;;;;;;27.60;32.30;;;;;;5089784;28;20386;-77
2022/03/23 13:28:13;;;;;;;;;;;27.60;34.10;;;;;;5090175;28;19963;-77
2022/03/23 13:30:40;;;;;;;;;;;27.70;33.70;;;;;;5090066;28;19924;-76
2022/03/23 13:33:14;;;;;;;;;;;28.00;34.70;;;;;;5091038;28;19928;-77
2022/03/23 13:35:43;;;;;;;;;;;28.10;33.70;;;;;;5091439;28;19924;-76
2022/03/23 13:38:09;;;;;;;;;;;28.20;34.00;;;;;;5091567;28;19928;-77
2022/03/23 13:43:22;;;;;;;;;;;27.90;31.80;;;;;;5114032;27;20611;-76